Time;durP1;ratioP1;P1;durP2;ratioP2;P2;SDS_P1;SDS_P2;PMS_P1;PMS_P2;Temp;Humidity;BMP_temperature;BMP_pressure;BME280_temperature;BME280_humidity;BME280_pressure;Samples;Min_cycle;Max_cycle;Signal;HPM_P1;HPM_P2
2023/09/21 00:03:30;;;;;;;;;;;;;;;15.56;74.15;98987.00;107645;1267;108324;-94
2023/09/21 00:10:33;;;;;;;;;;;;;;;;;;;;;
2023/09/21 00:13:39;;;;;;;6.50;3.80;;;;;;;15.58;74.13;98994.88;107690;1269;110564;-91
2023/09/21 00:17:16;;;;;;;;;;;;;;;;;;;;;
2023/09/21 00:20:34;;;;;;;;;;;;;;;;;;;;;
2023/09/21 00:23:49;;;;;;;;;;;;;;;;;;;;;
2023/09/21 00:26:59;;;;;;;7.50;3.70;;;;;;;15.58;74.24;98987.31;107704;1267;96385;-92
2023/09/21 00:30:45;;;;;;;;;;;;;;;;;;;;;
2023/09/21 00:37:17;;;;;;;9.00;4.50;;;;;;;15.51;74.17;98982.88;107720;1270;108425;-91
2023/09/21 00:43:48;;;;;;;;;;;;;;;;;;;;;
2023/09/21 00:46:52;;;;;;;8.70;4.20;;;;;;;15.45;74.18;98980.36;107646;1269;110674;-92
2023/09/21 00:57:14;;;;;;;;;;;;;;;;;;;;;
2023/09/21 01:00:30;;;;;;;8.80;3.90;;;;;;;15.41;74.44;98985.56;107740;1269;94751;-90
2023/09/21 01:03:53;;;;;;;;;;;;;;;;;;;;;
2023/09/21 01:07:22;;;;;;;7.50;3.80;;;;;;;15.40;74.50;98984.15;107759;1269;95233;31
2023/09/21 01:10:49;;;;;;;6.70;3.70;;;;;;;15.39;74.49;98976.06;107753;1267;108289;-91
2023/09/21 01:17:41;;;;;;;;;;;;;;;;;;;;;
2023/09/21 01:20:59;;;;;;;;;;;;;;;;;;;;;
2023/09/21 01:24:08;;;;;;;13.40;4.10;;;;;;;15.37;74.63;98966.44;107700;1271;95926;-92
2023/09/21 01:31:37;;;;;;;;;;;;;;;;;;;;;
2023/09/21 01:35:17;;;;;;;;;;;;;;;;;;;;;
2023/09/21 01:38:39;;;;;;;;;;;;;;;;;;;;;
2023/09/21 01:42:12;;;;;;;8.40;3.70;;;;;;;15.32;74.73;98959.17;107848;1263;96280;31
2023/09/21 01:45:37;;;;;;;8.70;4.10;;;;;;;15.33;74.84;98955.66;107695;1267;108171;-90
2023/09/21 01:52:26;;;;;;;;;;;;;;;;;;;;;
2023/09/21 01:55:43;;;;;;;9.40;4.20;;;;;;;15.35;74.79;98950.92;107651;1267;109497;31
2023/09/21 02:05:36;;;;;;;;;;;;;;;;;;;;;
2023/09/21 02:09:09;;;;;;;;;;;;;;;;;;;;;
2023/09/21 02:12:17;;;;;;;11.70;4.50;;;;;;;15.31;74.95;98943.77;107583;1268;110480;-91
2023/09/21 02:15:44;;;;;;;;;;;;;;;;;;;;;
2023/09/21 02:18:52;;;;;;;9.90;3.80;;;;;;;15.26;74.86;98935.44;107608;1266;108085;-93
2023/09/21 02:22:07;;;;;;;;;;;;;;;;;;;;;
2023/09/21 02:25:30;;;;;;;;;;;;;;;;;;;;;
2023/09/21 02:28:42;;;;;;;8.50;3.70;;;;;;;15.23;74.84;98934.17;107697;1267;110266;-91
2023/09/21 02:31:56;;;;;;;;;;;;;;;;;;;;;
2023/09/21 02:35:27;;;;;;;;;;;;;;;;;;;;;
2023/09/21 02:38:40;;;;;;;10.20;3.60;;;;;;;15.14;74.87;98925.68;107632;1267;95730;-91
2023/09/21 02:42:09;;;;;;;;;;;;;;;;;;;;;
2023/09/21 02:45:31;;;;;;;;;;;;;;;;;;;;;
2023/09/21 02:49:02;;;;;;;;;;;;;;;;;;;;;
2023/09/21 02:52:18;;;;;;;7.90;3.80;;;;;;;15.09;74.93;98923.13;107823;1267;107986;31
2023/09/21 03:02:44;;;;;;;6.00;3.20;;;;;;;15.08;74.93;98920.17;107815;1267;110001;31
2023/09/21 03:06:45;;;;;;;;;;;;;;;;;;;;;
2023/09/21 03:10:01;;;;;;;;;;;;;;;;;;;;;
2023/09/21 03:14:09;;;;;;;;;;;;;;;;;;;;;
2023/09/21 03:17:29;;;;;;;;;;;;;;;;;;;;;
2023/09/21 03:21:02;;;;;;;;;;;;;;;;;;;;;
2023/09/21 03:24:09;;;;;;;4.70;3.10;;;;;;;15.10;75.15;98917.67;107819;1266;96270;-89
2023/09/21 03:30:21;;;;;;;7.00;3.30;;;;;;;15.11;75.22;98919.34;107691;1266;94710;31
2023/09/21 03:33:45;;;;;;;;;;;;;;;;;;;;;
2023/09/21 03:40:06;;;;;;;8.40;3.40;;;;;;;15.11;75.08;98916.86;107783;1266;95987;-90
2023/09/21 03:52:53;;;;;;;9.30;3.80;;;;;;;15.15;75.13;98913.11;105476;1294;651154;-95
2023/09/21 03:56:50;;;;;;;7.00;3.40;;;;;;;15.12;75.14;98911.38;106749;1278;92974;-92
2023/09/21 04:03:28;;;;;;;8.50;3.90;;;;;;;15.11;75.18;98908.12;104200;1285;107106;-90
2023/09/21 04:06:08;;;;;;;6.60;3.30;;;;;;;15.12;75.19;98908.90;101923;1267;5079551;-90
2023/09/21 04:08:40;;;;;;;8.50;3.40;;;;;;;15.13;75.18;98908.28;105390;1270;94356;-89
2023/09/21 04:11:12;;;;;;;7.30;3.60;;;;;;;15.14;75.26;98904.84;105598;1267;94368;-90
2023/09/21 04:13:47;;;;;;;8.20;3.90;;;;;;;15.13;75.17;98904.14;105212;1276;106723;-91
2023/09/21 04:16:37;;;;;;;6.10;3.40;;;;;;;15.13;75.14;98908.84;105454;1270;94362;-93
2023/09/21 04:19:28;;;;;;;10.40;4.50;;;;;;;15.12;75.28;98908.37;105484;1267;107218;-92
2023/09/21 04:21:57;;;;;;;7.50;3.50;;;;;;;15.10;75.13;98906.02;105055;1270;95339;-90
2023/09/21 04:25:09;;;;;;;6.10;3.30;;;;;;;15.08;75.20;98908.95;105367;1273;95320;-88
2023/09/21 04:27:48;;;;;;;6.60;3.50;;;;;;;15.01;75.13;98908.15;105429;1272;108661;-92
2023/09/21 04:30:25;;;;;;;9.60;3.70;;;;;;;15.00;75.17;98909.34;105539;1276;96369;-91
2023/09/21 04:33:27;;;;;;;11.00;3.90;;;;;;;14.97;75.10;98904.83;105830;1267;107039;-91
2023/09/21 04:35:55;;;;;;;9.60;4.00;;;;;;;14.95;75.27;98902.80;104770;1271;95854;-79
2023/09/21 04:38:24;;;;;;;6.80;3.60;;;;;;;14.94;75.07;98903.27;104592;1271;95337;-79
2023/09/21 04:40:52;;;;;;;10.10;4.30;;;;;;;14.93;75.15;98900.91;106461;1269;108579;-80
2023/09/21 04:43:21;;;;;;;10.00;4.10;;;;;;;14.89;75.12;98901.57;105059;1270;95536;-79
2023/09/21 04:45:49;;;;;;;9.20;3.90;;;;;;;14.87;75.14;98899.61;104817;1269;107828;-78
2023/09/21 04:48:17;;;;;;;11.40;4.90;;;;;;;14.86;75.18;98899.55;105736;1267;95305;-80
2023/09/21 04:50:48;;;;;;;9.60;4.30;;;;;;;14.86;75.20;98895.27;104718;1263;96333;-78
2023/09/21 04:53:16;;;;;;;10.20;3.90;;;;;;;14.86;75.18;98893.86;104396;1269;109962;-79
2023/09/21 04:55:44;;;;;;;10.00;4.10;;;;;;;14.87;75.24;98894.45;104387;1269;96222;-77
2023/09/21 04:58:12;;;;;;;8.50;3.90;;;;;;;14.86;75.13;98892.92;104967;1270;107774;-78
2023/09/21 05:00:40;;;;;;;7.80;3.40;;;;;;;14.84;75.23;98893.61;106924;1266;95319;-78
2023/09/21 05:03:09;;;;;;;9.00;3.90;;;;;;;14.84;75.17;98888.80;105487;1265;95311;-79
2023/09/21 05:05:38;;;;;;;12.80;5.10;;;;;;;14.86;75.12;98892.72;106387;1266;108751;-81
2023/09/21 05:08:06;;;;;;;10.40;4.00;;;;;;;14.88;75.23;98893.39;105582;1267;95574;-81
2023/09/21 05:10:34;;;;;;;8.30;4.20;;;;;;;14.91;75.27;98894.05;105085;1267;107663;-79
2023/09/21 05:13:03;;;;;;;9.90;4.10;;;;;;;14.92;75.18;98894.32;104867;1273;95378;-76
2023/09/21 05:15:31;;;;;;;9.40;4.20;;;;;;;14.92;75.22;98896.83;107788;1266;93696;-77
2023/09/21 05:17:59;;;;;;;7.10;3.50;;;;;;;14.89;75.08;98897.85;107780;1265;108569;-78
2023/09/21 05:20:28;;;;;;;11.10;3.70;;;;;;;14.89;75.00;98897.30;107807;1267;95050;-77
2023/09/21 05:22:56;;;;;;;9.70;3.80;;;;;;;14.88;75.10;98898.04;107786;1267;107655;-77
2023/09/21 05:25:23;;;;;;;11.20;4.20;;;;;;;14.90;75.18;98895.05;107866;1264;93437;-77
2023/09/21 05:27:51;;;;;;;9.90;4.00;;;;;;;14.95;75.22;98894.42;106819;1267;95287;-77
2023/09/21 05:30:19;;;;;;;11.80;3.80;;;;;;;15.01;75.29;98893.17;104909;1266;108079;-78
2023/09/21 05:32:47;;;;;;;10.70;3.80;;;;;;;15.07;75.41;98897.59;104491;1269;95592;-78
2023/09/21 05:35:15;;;;;;;10.30;3.70;;;;;;;15.13;75.35;98895.06;105587;1267;107503;-77
2023/09/21 05:37:45;;;;;;;6.90;3.50;;;;;;;15.19;75.38;98890.25;104362;1267;95298;-78
2023/09/21 05:40:13;;;;;;;8.00;3.40;;;;;;;15.25;75.57;98893.98;104659;1270;95279;-78
2023/09/21 05:42:41;;;;;;;7.10;3.60;;;;;;;15.32;75.57;98895.79;104419;1270;108162;-78
2023/09/21 05:45:09;;;;;;;16.30;4.00;;;;;;;15.38;75.58;98896.45;105715;1265;95457;-77
2023/09/21 05:47:37;;;;;;;35.80;7.40;;;;;;;15.44;75.57;98893.61;105427;1269;107340;-78
2023/09/21 05:50:07;;;;;;;11.40;3.60;;;;;;;15.51;75.65;98896.54;105827;1266;96196;-78
2023/09/21 05:52:37;;;;;;;10.30;3.50;;;;;;;15.57;75.68;98897.70;107596;1265;94268;-78
2023/09/21 05:55:05;;;;;;;12.20;3.40;;;;;;;15.63;75.55;98895.49;105237;1267;108547;-78
2023/09/21 05:57:33;;;;;;;18.80;4.80;;;;;;;15.70;75.63;98898.56;105843;1266;95859;-78
2023/09/21 06:00:01;;;;;;;21.50;4.60;;;;;;;15.77;75.54;98899.34;104591;1267;107645;-77
2023/09/21 06:02:29;;;;;;;12.90;3.60;;;;;;;15.85;75.62;98895.76;104754;1270;95263;-77
2023/09/21 06:04:57;;;;;;;9.80;3.40;;;;;;;15.92;75.66;98894.02;104648;1269;96199;-79
2023/09/21 06:07:27;;;;;;;17.20;3.30;;;;;;;15.97;75.47;98895.28;104828;1269;108213;-79
2023/09/21 06:09:55;;;;;;;11.20;3.70;;;;;;;16.03;75.69;98891.35;105415;1272;95448;-77
2023/09/21 06:12:25;;;;;;;10.00;3.40;;;;;;;16.09;75.65;98892.73;104915;1269;107873;-77
2023/09/21 06:14:53;;;;;;;8.00;3.10;;;;;;;16.15;75.75;98892.08;104922;1264;95860;-77
2023/09/21 06:17:22;;;;;;;7.60;3.50;;;;;;;16.21;75.67;98890.77;104517;1271;96169;-77
2023/09/21 06:19:53;;;;;;;20.50;4.80;;;;;;;16.28;75.73;98890.70;104621;1267;107026;-77
2023/09/21 06:22:21;;;;;;;18.90;4.90;;;;;;;16.34;75.92;98890.59;104307;1272;95376;-77
2023/09/21 06:24:49;;;;;;;12.40;3.70;;;;;;;16.40;75.94;98890.89;104617;1270;107703;-78
2023/09/21 06:27:18;;;;;;;13.40;3.60;;;;;;;16.45;75.91;98890.60;104317;1271;95399;-77
2023/09/21 06:29:46;;;;;;;18.50;4.60;;;;;;;16.52;75.90;98888.30;104547;1266;96157;-77
2023/09/21 06:32:15;;;;;;;10.50;3.30;;;;;;;16.59;75.90;98888.15;105016;1270;108661;-78
2023/09/21 06:34:43;;;;;;;16.30;4.20;;;;;;;16.65;75.86;98888.02;105493;1269;95551;-78
2023/09/21 06:37:12;;;;;;;15.80;4.40;;;;;;;16.73;75.85;98889.28;104566;1271;107192;-77
2023/09/21 06:39:41;;;;;;;16.90;4.50;;;;;;;16.78;75.83;98890.15;104499;1270;96097;-77
2023/09/21 06:42:09;;;;;;;17.50;4.10;;;;;;;16.84;75.75;98890.86;104822;1266;95502;-78
2023/09/21 06:44:37;;;;;;;11.90;3.80;;;;;;;16.89;75.74;98891.05;104831;1266;108211;-78
2023/09/21 06:47:05;;;;;;;18.70;4.80;;;;;;;16.94;75.81;98890.13;104921;1267;95306;-78
2023/09/21 06:49:36;;;;;;;7.00;3.60;;;;;;;16.99;75.82;98890.27;104574;1269;107659;-77
2023/09/21 06:52:06;;;;;;;;;;;;;;;17.06;75.79;98886.16;104690;1269;95399;-78
2023/09/21 06:54:34;;;;;;;13.80;3.70;;;;;;;17.11;75.75;98883.14;104610;1269;96607;-79
2023/09/21 06:57:04;;;;;;;24.90;5.70;;;;;;;17.14;75.76;98883.67;104319;1265;108660;-78
2023/09/21 06:59:38;;;;;;;11.40;3.60;;;;;;;17.20;75.85;98882.52;104344;1269;95294;-78
2023/09/21 07:02:06;;;;;;;11.10;3.40;;;;;;;17.26;75.74;98879.27;104517;1282;106216;-78
2023/09/21 07:04:34;;;;;;;21.80;4.70;;;;;;;17.32;75.88;98878.07;104583;1270;95288;-78
2023/09/21 07:07:06;;;;;;;13.80;3.90;;;;;;;17.37;75.93;98878.94;104651;1270;95878;-78
2023/09/21 07:09:37;;;;;;;9.40;3.70;;;;;;;17.43;75.84;98882.50;105213;1267;108641;-79
2023/09/21 07:12:05;;;;;;;11.20;3.50;;;;;;;17.48;75.69;98879.84;104547;1284;95567;-78
2023/09/21 07:14:36;;;;;;;9.60;3.40;;;;;;;17.53;75.71;98877.36;104587;1287;107695;-77
2023/09/21 07:17:05;;;;;;;6.90;2.80;;;;;;;17.61;75.74;98879.96;104545;1270;95289;-78
2023/09/21 07:19:34;;;;;;;16.50;4.20;;;;;;;17.69;75.84;98881.61;104946;1267;95295;-78
2023/09/21 07:22:04;;;;;;;12.50;3.90;;;;;;;17.76;75.80;98881.63;105603;1266;109117;-77
2023/09/21 07:24:32;;;;;;;5.90;3.20;;;;;;;17.83;75.79;98883.38;104511;1279;95924;-77
2023/09/21 07:27:00;;;;;;;9.50;3.50;;;;;;;17.91;75.66;98877.54;104761;1267;107399;-77
2023/09/21 07:29:31;;;;;;;15.70;4.50;;;;;;;17.98;75.60;98881.43;104668;1270;95334;-78
2023/09/21 07:32:00;;;;;;;9.40;3.70;;;;;;;18.05;75.70;98880.92;104579;1266;95262;-79
2023/09/21 07:34:29;;;;;;;14.40;3.80;;;;;;;18.11;75.72;98877.33;104756;1270;108579;-77
2023/09/21 07:36:58;;;;;;;18.20;4.60;;;;;;;18.18;75.73;98877.73;104657;1267;95707;-77
2023/09/21 07:39:28;;;;;;;6.80;3.40;;;;;;;18.23;75.61;98875.20;104736;1266;107620;-78
2023/09/21 07:41:56;;;;;;;8.70;3.10;;;;;;;18.30;75.69;98876.77;104407;1265;95316;-78
2023/09/21 07:44:24;;;;;;;14.60;3.80;;;;;;;18.36;75.61;98876.81;106531;1267;95185;-77
2023/09/21 07:46:52;;;;;;;5.30;3.20;;;;;;;18.41;75.66;98878.98;104268;1271;108974;-77
2023/09/21 07:49:23;;;;;;;8.50;3.10;;;;;;;18.48;75.63;98873.80;104634;1270;96088;-78
2023/09/21 07:51:55;;;;;;;6.70;3.50;;;;;;;18.55;75.45;98877.52;104297;1270;107738;-78
2023/09/21 07:54:23;;;;;;;12.20;3.20;;;;;;;18.63;75.53;98874.91;104686;1270;95350;-78
2023/09/21 07:56:51;;;;;;;16.70;3.90;;;;;;;18.66;75.51;98877.00;105261;1264;95256;-78
2023/09/21 07:59:18;;;;;;;7.90;3.20;;;;;;;18.72;75.49;98870.84;105026;1265;108166;-78
2023/09/21 08:01:48;;;;;;;7.00;3.00;;;;;;;18.79;75.41;98871.30;104425;1281;96382;-78
2023/09/21 08:04:17;;;;;;;7.80;3.20;;;;;;;18.88;75.45;98871.36;104875;1265;106545;-78
2023/09/21 08:06:45;;;;;;;16.60;3.70;;;;;;;18.95;75.37;98867.02;105853;1267;97607;-78
2023/09/21 08:09:14;;;;;;;17.00;3.80;;;;;;;19.04;75.43;98869.15;104414;1265;96738;-78
2023/09/21 08:11:58;;;;;;;8.30;3.00;;;;;;;19.15;75.38;98872.23;104768;1267;110023;-78
2023/09/21 08:14:27;;;;;;;15.20;4.20;;;;;;;19.22;75.24;98873.98;106206;1269;96625;-77
2023/09/21 08:16:55;;;;;;;17.20;4.20;;;;;;;19.25;75.11;98863.80;104403;1271;106804;-77
2023/09/21 08:19:23;;;;;;;6.40;3.30;;;;;;;19.28;75.10;98867.06;104536;1267;96618;-78
2023/09/21 08:21:52;;;;;;;5.10;3.10;;;;;;;19.34;75.23;98869.78;104596;1267;96648;-77
2023/09/21 08:24:20;;;;;;;6.50;3.10;;;;;;;19.40;75.11;98869.05;105180;1269;109983;-77
2023/09/21 08:26:48;;;;;;;5.70;2.70;;;;;;;19.43;75.11;98865.50;104368;1269;97957;-78
2023/09/21 08:29:16;;;;;;;6.30;2.50;;;;;;;19.46;75.10;98863.33;104805;1269;107132;-78
2023/09/21 08:31:45;;;;;;;9.20;3.00;;;;;;;19.50;75.06;98862.61;104298;1267;98025;-77
2023/09/21 08:34:16;;;;;;;6.60;3.20;;;;;;;19.56;75.10;98862.41;105159;1266;96788;-78
2023/09/21 08:36:44;;;;;;;9.00;3.10;;;;;;;19.60;74.87;98860.54;104468;1267;110007;-78
2023/09/21 08:39:13;;;;;;;9.50;3.10;;;;;;;19.63;75.01;98862.18;105117;1267;96647;-77
2023/09/21 08:41:49;;;;;;;6.10;2.60;;;;;;;19.68;74.99;98861.04;104534;1270;110690;-78
2023/09/21 08:44:17;;;;;;;6.10;2.90;;;;;;;19.76;74.98;98860.81;104322;1281;96797;-78
2023/09/21 08:46:47;;;;;;;7.80;2.90;;;;;;;19.86;74.94;98852.77;104735;1269;96618;-77
2023/09/21 08:49:17;;;;;;;6.90;2.40;;;;;;;19.91;74.86;98849.29;104579;1270;110543;-78
2023/09/21 08:51:47;;;;;;;6.30;2.60;;;;;;;19.99;74.76;98849.39;104950;1267;96586;-78
2023/09/21 08:54:15;;;;;;;7.90;2.80;;;;;;;20.04;74.60;98846.72;104482;1265;107231;-78
2023/09/21 08:56:46;;;;;;;6.10;2.80;;;;;;;20.11;74.50;98847.41;104684;1278;96559;-77
2023/09/21 08:59:18;;;;;;;7.60;2.70;;;;;;;20.17;74.37;98847.41;104556;1265;96634;-78
2023/09/21 09:01:47;;;;;;;11.40;3.20;;;;;;;20.26;74.60;98849.13;104587;1269;109676;-77
2023/09/21 09:04:15;;;;;;;7.50;3.00;;;;;;;20.29;74.57;98845.06;104812;1270;96631;-78
2023/09/21 09:06:44;;;;;;;4.50;2.70;;;;;;;20.34;74.57;98848.81;104476;1265;107757;-77
2023/09/21 09:09:11;;;;;;;8.60;2.80;;;;;;;20.41;74.42;98847.16;104529;1270;97856;-78
2023/09/21 09:11:44;;;;;;;7.50;2.70;;;;;;;20.44;74.32;98841.02;104660;1267;96548;-78
2023/09/21 09:14:14;;;;;;;;;;;;;;;20.50;74.25;98843.55;104417;1269;109653;-77
2023/09/21 09:16:44;;;;;;;13.40;3.30;;;;;;;20.53;74.22;98836.40;104612;1279;96640;-78
2023/09/21 09:19:13;;;;;;;10.30;3.30;;;;;;;20.59;74.22;98836.75;104414;1271;107742;-79
2023/09/21 09:21:41;;;;;;;7.20;2.80;;;;;;;20.66;74.35;98837.36;104560;1270;97912;-78
2023/09/21 09:24:11;;;;;;;8.30;3.20;;;;;;;20.73;74.24;98834.98;104473;1267;97990;-79
2023/09/21 09:26:43;;;;;;;13.20;2.90;;;;;;;20.75;73.91;98833.44;104512;1267;111827;-77
2023/09/21 09:29:16;;;;;;;10.00;2.90;;;;;;;20.79;73.95;98834.73;104521;1270;97912;-78
2023/09/21 09:31:47;;;;;;;5.30;2.60;;;;;;;20.86;73.86;98832.31;104396;1270;107718;-78
2023/09/21 09:34:17;;;;;;;6.20;2.20;;;;;;;20.88;73.63;98832.83;105080;1267;96656;-77
2023/09/21 09:36:51;;;;;;;4.50;2.50;;;;;;;20.90;73.86;98835.31;104643;1271;96647;-78
2023/09/21 09:39:23;;;;;;;5.10;2.90;;;;;;;20.92;73.75;98836.14;104439;1271;110075;-77
2023/09/21 09:41:53;;;;;;;6.60;2.90;;;;;;;20.96;73.76;98838.73;105143;1267;96665;-78
2023/09/21 09:44:22;;;;;;;10.00;3.30;;;;;;;21.00;73.57;98831.92;104263;1281;108429;-78
2023/09/21 09:46:58;;;;;;;4.90;2.50;;;;;;;21.06;73.69;98832.69;104757;1264;96735;-78
2023/09/21 09:49:28;;;;;;;9.20;2.60;;;;;;;21.11;73.60;98830.80;104652;1267;97855;-78
2023/09/21 09:52:00;;;;;;;11.10;3.20;;;;;;;21.17;73.46;98825.20;106203;1266;109868;-78
2023/09/21 09:54:29;;;;;;;5.30;2.50;;;;;;;21.22;73.42;98822.63;104417;1269;96720;-79
2023/09/21 09:56:59;;;;;;;7.80;2.30;;;;;;;21.25;73.00;98817.90;104702;1267;107336;-77
2023/09/21 09:59:29;;;;;;;7.60;2.50;;;;;;;21.29;73.03;98818.16;105390;1264;98076;-77
2023/09/21 10:01:58;;;;;;;5.80;2.60;;;;;;;21.32;72.79;98821.27;104929;1270;96666;-77
2023/09/21 10:04:33;;;;;;;4.90;2.40;;;;;;;21.36;72.89;98817.91;104754;1267;109921;-78
2023/09/21 10:07:04;;;;;;;5.50;3.00;;;;;;;21.39;72.83;98818.88;104410;1265;97295;-78
2023/09/21 10:09:32;;;;;;;7.40;2.50;;;;;;;21.43;72.58;98814.30;104393;1270;106944;-79
2023/09/21 10:12:04;;;;;;;5.60;2.70;;;;;;;21.50;72.65;98808.09;104329;1269;96692;-77
2023/09/21 10:14:36;;;;;;;5.90;2.60;;;;;;;21.54;72.43;98804.15;104810;1269;96620;-78
2023/09/21 10:17:05;;;;;;;6.20;2.40;;;;;;;21.55;72.40;98806.34;105175;1269;109381;-78
2023/09/21 10:19:38;;;;;;;4.30;2.30;;;;;;;21.63;72.49;98799.98;104782;1270;96594;-79
2023/09/21 10:22:25;;;;;;;6.40;2.30;;;;;;;21.73;72.20;98800.79;104782;1270;107895;-78
2023/09/21 10:24:59;;;;;;;8.70;2.80;;;;;;;21.82;71.83;98798.55;104807;1269;96813;-77
2023/09/21 10:27:28;;;;;;;7.90;2.40;;;;;;;21.85;72.11;98792.17;105043;1269;96635;-78
2023/09/21 10:30:06;;;;;;;9.00;2.70;;;;;;;21.90;71.70;98797.80;104407;1277;110716;-79
2023/09/21 10:32:48;;;;;;;5.80;2.40;;;;;;;21.95;71.50;98801.11;105003;1266;96692;-78
2023/09/21 10:35:43;;;;;;;7.40;2.70;;;;;;;21.98;71.28;98800.56;104648;1265;106604;-78
2023/09/21 10:38:16;;;;;;;13.40;3.10;;;;;;;22.03;71.33;98796.73;104400;1270;97387;-78
2023/09/21 10:40:44;;;;;;;8.70;3.00;;;;;;;22.06;71.41;98792.39;104597;1267;96621;-78
2023/09/21 10:43:37;;;;;;;9.40;2.60;;;;;;;22.11;71.19;98789.48;104754;1269;109912;-77
2023/09/21 10:46:26;;;;;;;3.50;2.00;;;;;;;22.14;71.19;98787.76;104493;1269;96553;-78
2023/09/21 10:49:04;;;;;;;8.90;2.90;;;;;;;22.21;71.15;98785.65;104161;1265;107754;-78
2023/09/21 10:51:39;;;;;;;4.90;2.40;;;;;;;22.21;71.00;98782.77;105057;1267;96643;-79
2023/09/21 10:54:10;;;;;;;3.80;2.10;;;;;;;22.21;70.96;98781.44;104865;1266;96788;-78
2023/09/21 10:56:41;;;;;;;3.50;2.00;;;;;;;22.24;70.60;98774.34;105166;1265;109568;-77
2023/09/21 10:59:09;;;;;;;5.10;2.30;;;;;;;22.25;70.58;98774.59;104321;1270;96630;-78
2023/09/21 11:01:39;;;;;;;4.50;1.80;;;;;;;22.28;70.15;98773.16;104498;1271;107498;-78
2023/09/21 11:04:07;;;;;;;3.30;2.10;;;;;;;22.33;70.43;98772.38;104624;1268;96624;-78
2023/09/21 11:06:37;;;;;;;5.80;1.80;;;;;;;22.34;70.37;98768.67;104465;1271;96570;-78
2023/09/21 11:09:08;;;;;;;4.20;2.20;;;;;;;22.33;69.97;98764.77;104683;1265;109915;-78
2023/09/21 11:11:36;;;;;;;3.40;1.70;;;;;;;22.36;69.64;98761.23;104923;1266;96468;-78
2023/09/21 11:14:06;;;;;;;3.90;2.00;;;;;;;22.38;70.08;98761.42;104552;1270;107650;-78
2023/09/21 11:16:34;;;;;;;7.30;2.30;;;;;;;22.40;70.02;98758.81;104389;1269;96725;-77
2023/09/21 11:19:05;;;;;;;5.40;2.30;;;;;;;22.44;69.79;98754.86;104848;1269;96601;-78
2023/09/21 16:57:31;;;;;;;8.60;3.80;;;;;;;20.39;63.81;98541.27;105684;1283;649790;-91
2023/09/21 17:04:08;;;;;;;6.40;3.00;;;;;;;20.24;63.82;98542.14;107826;1270;92904;-93
2023/09/21 17:07:57;;;;;;;;;;;;;;;;;;;;;
2023/09/21 17:55:05;;;;;;;17.70;7.30;;;;;;;19.35;64.46;98529.49;89346;1277;94538;-92
2023/09/21 18:09:27;;;;;;;13.60;5.70;;;;;;;19.10;64.77;98533.67;89385;1275;106374;-91
2023/09/21 19:18:05;;;;;;;17.30;6.10;;;;;;;18.43;65.71;98501.05;95203;1273;106342;-96
2023/09/21 19:39:31;;;;;;;14.30;5.00;;;;;;;18.11;66.21;98500.81;102791;1278;93829;-93
2023/09/21 19:46:32;;;;;;;14.00;4.90;;;;;;;18.04;66.38;98492.83;102324;1279;108791;-94
2023/09/21 19:53:27;;;;;;;13.50;5.00;;;;;;;17.94;66.44;98491.38;107284;1277;106386;-94
2023/09/21 20:18:43;;;;;;;;;;;;;;;;;;;;;
2023/09/21 20:22:00;;;;;;;;;;;;;;;;;;;;;
2023/09/21 20:25:06;;;;;;;13.60;5.00;;;;;;;17.45;66.88;98478.33;107349;1277;94051;-92
2023/09/21 20:28:12;;;;;;;18.10;5.50;;;;;;;17.41;66.99;98477.09;107465;1276;106250;-94
2023/09/21 21:01:44;;;;;;;15.70;6.30;;;;;;;17.04;67.51;98457.20;96837;1277;106268;-91
2023/09/21 21:19:42;;;;;;;9.70;3.30;;;;;;;17.01;67.94;98452.87;107343;1276;108356;-93
2023/09/21 21:30:46;;;;;;;;;;;;;;;;;;;;;
2023/09/21 22:35:14;;;;;;;6.30;3.20;;;;;;;17.18;68.81;98400.49;99843;1277;93592;-92
2023/09/21 23:37:46;;;;;;;6.40;2.90;;;;;;;17.02;69.20;98359.58;89486;1276;110050;-92
